sensor_id;sensor_type;location;lat;lon;timestamp;temperature;humidity
12926;DHT22;6529;50.566;9.774;2023-04-24T00:01:43;10.90;99.90
12926;DHT22;6529;50.566;9.774;2023-04-24T00:04:08;10.90;99.90
12926;DHT22;6529;50.566;9.774;2023-04-24T00:06:36;10.90;99.90
12926;DHT22;6529;50.566;9.774;2023-04-24T00:09:03;11.00;99.90
12926;DHT22;6529;50.566;9.774;2023-04-24T00:11:29;11.00;99.90
12926;DHT22;6529;50.566;9.774;2023-04-24T00:13:55;11.00;99.90
12926;DHT22;6529;50.566;9.774;2023-04-24T00:16:21;11.00;99.90
12926;DHT22;6529;50.566;9.774;2023-04-24T00:18:47;11.00;99.90
12926;DHT22;6529;50.566;9.774;2023-04-24T00:21:13;11.00;99.90
12926;DHT22;6529;50.566;9.774;2023-04-24T00:23:40;11.00;99.90
12926;DHT22;6529;50.566;9.774;2023-04-24T00:26:05;11.00;99.90
12926;DHT22;6529;50.566;9.774;2023-04-24T00:28:31;10.90;99.90
12926;DHT22;6529;50.566;9.774;2023-04-24T00:30:57;11.00;99.90
12926;DHT22;6529;50.566;9.774;2023-04-24T00:33:22;11.00;99.90
12926;DHT22;6529;50.566;9.774;2023-04-24T00:35:48;11.00;99.90
12926;DHT22;6529;50.566;9.774;2023-04-24T00:38:13;11.00;99.90
12926;DHT22;6529;50.566;9.774;2023-04-24T00:40:39;10.90;99.90
12926;DHT22;6529;50.566;9.774;2023-04-24T00:43:05;11.00;99.90
12926;DHT22;6529;50.566;9.774;2023-04-24T00:45:30;10.90;99.90
12926;DHT22;6529;50.566;9.774;2023-04-24T00:47:56;10.90;99.90
12926;DHT22;6529;50.566;9.774;2023-04-24T00:50:23;10.90;99.90
12926;DHT22;6529;50.566;9.774;2023-04-24T00:52:49;10.90;99.90
12926;DHT22;6529;50.566;9.774;2023-04-24T00:55:15;10.80;99.90
12926;DHT22;6529;50.566;9.774;2023-04-24T00:57:41;10.90;99.90
12926;DHT22;6529;50.566;9.774;2023-04-24T01:00:07;10.90;99.90
12926;DHT22;6529;50.566;9.774;2023-04-24T01:02:37;10.80;99.90
12926;DHT22;6529;50.566;9.774;2023-04-24T01:05:06;10.80;99.90
12926;DHT22;6529;50.566;9.774;2023-04-24T01:07:32;10.80;99.90
12926;DHT22;6529;50.566;9.774;2023-04-24T01:09:58;10.80;99.90
12926;DHT22;6529;50.566;9.774;2023-04-24T01:12:24;10.80;99.90
12926;DHT22;6529;50.566;9.774;2023-04-24T01:14:50;10.80;99.90
12926;DHT22;6529;50.566;9.774;2023-04-24T01:17:15;10.80;99.90
12926;DHT22;6529;50.566;9.774;2023-04-24T01:19:41;10.80;99.90
12926;DHT22;6529;50.566;9.774;2023-04-24T01:22:16;10.70;99.90
12926;DHT22;6529;50.566;9.774;2023-04-24T01:24:42;10.80;99.90
12926;DHT22;6529;50.566;9.774;2023-04-24T01:27:10;10.80;99.90
12926;DHT22;6529;50.566;9.774;2023-04-24T01:29:36;10.80;99.90
12926;DHT22;6529;50.566;9.774;2023-04-24T01:32:02;10.80;99.90
12926;DHT22;6529;50.566;9.774;2023-04-24T01:34:30;10.80;99.90
12926;DHT22;6529;50.566;9.774;2023-04-24T01:36:56;10.80;99.90
12926;DHT22;6529;50.566;9.774;2023-04-24T01:39:22;10.80;99.90
12926;DHT22;6529;50.566;9.774;2023-04-24T01:41:51;10.70;99.90
12926;DHT22;6529;50.566;9.774;2023-04-24T01:44:18;10.70;99.90
12926;DHT22;6529;50.566;9.774;2023-04-24T01:46:43;10.60;99.90
12926;DHT22;6529;50.566;9.774;2023-04-24T01:49:09;10.70;99.90
12926;DHT22;6529;50.566;9.774;2023-04-24T01:51:35;10.60;99.90
12926;DHT22;6529;50.566;9.774;2023-04-24T01:54:01;10.70;99.90
12926;DHT22;6529;50.566;9.774;2023-04-24T01:56:29;10.70;99.90
12926;DHT22;6529;50.566;9.774;2023-04-24T01:58:55;10.70;99.90
12926;DHT22;6529;50.566;9.774;2023-04-24T02:01:23;10.80;99.90
12926;DHT22;6529;50.566;9.774;2023-04-24T02:03:49;10.80;99.90
12926;DHT22;6529;50.566;9.774;2023-04-24T02:06:15;10.80;99.90
12926;DHT22;6529;50.566;9.774;2023-04-24T02:08:41;10.80;99.90
12926;DHT22;6529;50.566;9.774;2023-04-24T02:11:08;10.80;99.90
12926;DHT22;6529;50.566;9.774;2023-04-24T02:13:33;10.70;99.90
12926;DHT22;6529;50.566;9.774;2023-04-24T02:15:59;10.70;99.90
12926;DHT22;6529;50.566;9.774;2023-04-24T02:18:24;10.70;99.90
12926;DHT22;6529;50.566;9.774;2023-04-24T02:20:50;10.70;99.90
12926;DHT22;6529;50.566;9.774;2023-04-24T02:23:16;10.70;99.90
12926;DHT22;6529;50.566;9.774;2023-04-24T02:25:41;10.70;99.90
12926;DHT22;6529;50.566;9.774;2023-04-24T02:28:07;10.70;99.90
12926;DHT22;6529;50.566;9.774;2023-04-24T02:30:32;10.70;99.90
12926;DHT22;6529;50.566;9.774;2023-04-24T02:32:58;10.70;99.90
12926;DHT22;6529;50.566;9.774;2023-04-24T02:35:23;10.70;99.90
12926;DHT22;6529;50.566;9.774;2023-04-24T02:37:49;10.70;99.90
12926;DHT22;6529;50.566;9.774;2023-04-24T02:40:15;10.60;99.90
12926;DHT22;6529;50.566;9.774;2023-04-24T02:42:40;10.60;99.90
12926;DHT22;6529;50.566;9.774;2023-04-24T02:45:06;10.60;99.90
12926;DHT22;6529;50.566;9.774;2023-04-24T02:47:32;10.60;99.90
12926;DHT22;6529;50.566;9.774;2023-04-24T02:49:57;10.60;99.90
12926;DHT22;6529;50.566;9.774;2023-04-24T02:52:23;10.60;99.90
12926;DHT22;6529;50.566;9.774;2023-04-24T02:54:49;10.60;99.90
12926;DHT22;6529;50.566;9.774;2023-04-24T02:57:14;10.60;99.90
12926;DHT22;6529;50.566;9.774;2023-04-24T02:59:40;10.60;99.90
12926;DHT22;6529;50.566;9.774;2023-04-24T03:02:05;10.60;99.90
12926;DHT22;6529;50.566;9.774;2023-04-24T03:04:31;10.60;99.90
12926;DHT22;6529;50.566;9.774;2023-04-24T03:06:57;10.60;99.90
12926;DHT22;6529;50.566;9.774;2023-04-24T03:09:23;10.60;99.90
12926;DHT22;6529;50.566;9.774;2023-04-24T03:11:49;10.50;99.90
12926;DHT22;6529;50.566;9.774;2023-04-24T03:14:15;10.50;99.90
12926;DHT22;6529;50.566;9.774;2023-04-24T03:16:41;10.50;99.90
12926;DHT22;6529;50.566;9.774;2023-04-24T03:19:06;10.40;99.90
12926;DHT22;6529;50.566;9.774;2023-04-24T03:21:32;10.40;99.90
12926;DHT22;6529;50.566;9.774;2023-04-24T03:23:58;10.40;99.90
12926;DHT22;6529;50.566;9.774;2023-04-24T03:26:23;10.40;99.90
12926;DHT22;6529;50.566;9.774;2023-04-24T03:28:49;10.30;99.90
12926;DHT22;6529;50.566;9.774;2023-04-24T03:31:14;10.20;99.90
12926;DHT22;6529;50.566;9.774;2023-04-24T03:33:40;10.30;99.90
12926;DHT22;6529;50.566;9.774;2023-04-24T03:36:06;10.20;99.90
12926;DHT22;6529;50.566;9.774;2023-04-24T03:38:32;10.20;99.90
12926;DHT22;6529;50.566;9.774;2023-04-24T03:40:57;10.20;99.90
12926;DHT22;6529;50.566;9.774;2023-04-24T03:43:23;10.20;99.90
12926;DHT22;6529;50.566;9.774;2023-04-24T03:45:49;10.20;99.90
12926;DHT22;6529;50.566;9.774;2023-04-24T03:48:14;10.20;99.90
12926;DHT22;6529;50.566;9.774;2023-04-24T03:50:40;10.20;99.90
12926;DHT22;6529;50.566;9.774;2023-04-24T03:53:05;10.20;99.90
12926;DHT22;6529;50.566;9.774;2023-04-24T03:55:31;10.20;99.90
12926;DHT22;6529;50.566;9.774;2023-04-24T03:57:57;10.30;99.90
12926;DHT22;6529;50.566;9.774;2023-04-24T04:00:22;10.30;99.90
12926;DHT22;6529;50.566;9.774;2023-04-24T04:02:48;10.30;99.90
12926;DHT22;6529;50.566;9.774;2023-04-24T04:05:13;10.30;99.90
12926;DHT22;6529;50.566;9.774;2023-04-24T04:07:39;10.30;99.90
12926;DHT22;6529;50.566;9.774;2023-04-24T04:10:05;10.40;99.90
12926;DHT22;6529;50.566;9.774;2023-04-24T04:12:32;10.40;99.90
12926;DHT22;6529;50.566;9.774;2023-04-24T04:14:57;10.40;99.90
12926;DHT22;6529;50.566;9.774;2023-04-24T04:17:23;10.50;99.90
12926;DHT22;6529;50.566;9.774;2023-04-24T04:19:49;10.50;99.90
12926;DHT22;6529;50.566;9.774;2023-04-24T04:22:14;10.50;99.90
12926;DHT22;6529;50.566;9.774;2023-04-24T04:24:40;10.50;99.90
12926;DHT22;6529;50.566;9.774;2023-04-24T04:27:06;10.50;99.90
12926;DHT22;6529;50.566;9.774;2023-04-24T04:29:32;10.50;99.90
12926;DHT22;6529;50.566;9.774;2023-04-24T04:31:58;10.50;99.90
12926;DHT22;6529;50.566;9.774;2023-04-24T04:34:23;10.60;99.90
12926;DHT22;6529;50.566;9.774;2023-04-24T04:36:49;10.50;99.90
12926;DHT22;6529;50.566;9.774;2023-04-24T04:39:15;10.50;99.90
12926;DHT22;6529;50.566;9.774;2023-04-24T04:41:42;10.50;99.90
12926;DHT22;6529;50.566;9.774;2023-04-24T04:44:07;10.50;99.90
12926;DHT22;6529;50.566;9.774;2023-04-24T04:46:34;10.50;99.90
12926;DHT22;6529;50.566;9.774;2023-04-24T04:49:00;10.50;99.90
12926;DHT22;6529;50.566;9.774;2023-04-24T04:51:26;10.50;99.90
12926;DHT22;6529;50.566;9.774;2023-04-24T04:53:52;10.50;99.90
12926;DHT22;6529;50.566;9.774;2023-04-24T04:56:18;10.50;99.90
12926;DHT22;6529;50.566;9.774;2023-04-24T04:58:43;10.50;99.90
12926;DHT22;6529;50.566;9.774;2023-04-24T05:01:09;10.40;99.90
12926;DHT22;6529;50.566;9.774;2023-04-24T05:03:35;10.40;1.00
12926;DHT22;6529;50.566;9.774;2023-04-24T05:06:01;10.30;1.00
12926;DHT22;6529;50.566;9.774;2023-04-24T05:08:27;10.40;1.00
12926;DHT22;6529;50.566;9.774;2023-04-24T05:10:53;10.30;1.00
12926;DHT22;6529;50.566;9.774;2023-04-24T05:13:19;10.30;1.00
12926;DHT22;6529;50.566;9.774;2023-04-24T05:15:44;10.40;1.00
12926;DHT22;6529;50.566;9.774;2023-04-24T05:18:10;10.40;1.00
12926;DHT22;6529;50.566;9.774;2023-04-24T05:20:35;10.40;1.00
12926;DHT22;6529;50.566;9.774;2023-04-24T05:23:01;10.40;1.00
12926;DHT22;6529;50.566;9.774;2023-04-24T05:25:27;10.30;1.00
12926;DHT22;6529;50.566;9.774;2023-04-24T05:27:52;10.20;99.90
12926;DHT22;6529;50.566;9.774;2023-04-24T05:30:19;10.20;99.90
12926;DHT22;6529;50.566;9.774;2023-04-24T05:32:45;10.30;99.90
12926;DHT22;6529;50.566;9.774;2023-04-24T05:35:11;10.20;99.10
12926;DHT22;6529;50.566;9.774;2023-04-24T05:37:37;10.10;78.60
12926;DHT22;6529;50.566;9.774;2023-04-24T05:40:03;10.20;99.90
12926;DHT22;6529;50.566;9.774;2023-04-24T05:42:30;10.20;99.90
12926;DHT22;6529;50.566;9.774;2023-04-24T05:44:56;10.20;98.30
12926;DHT22;6529;50.566;9.774;2023-04-24T05:47:21;10.10;99.90
12926;DHT22;6529;50.566;9.774;2023-04-24T05:49:47;10.10;99.90
12926;DHT22;6529;50.566;9.774;2023-04-24T05:52:13;10.20;75.50
12926;DHT22;6529;50.566;9.774;2023-04-24T05:54:39;10.20;99.90
12926;DHT22;6529;50.566;9.774;2023-04-24T05:57:04;10.20;92.00
12926;DHT22;6529;50.566;9.774;2023-04-24T05:59:36;10.20;22.50
12926;DHT22;6529;50.566;9.774;2023-04-24T06:02:03;10.20;1.00
12926;DHT22;6529;50.566;9.774;2023-04-24T06:04:28;10.20;1.00
12926;DHT22;6529;50.566;9.774;2023-04-24T06:06:54;10.10;3.20
12926;DHT22;6529;50.566;9.774;2023-04-24T06:09:22;10.10;1.00
12926;DHT22;6529;50.566;9.774;2023-04-24T06:11:48;10.10;1.00
12926;DHT22;6529;50.566;9.774;2023-04-24T06:14:14;10.10;1.00
12926;DHT22;6529;50.566;9.774;2023-04-24T06:16:42;10.00;25.40
12926;DHT22;6529;50.566;9.774;2023-04-24T06:19:07;10.00;1.00
12926;DHT22;6529;50.566;9.774;2023-04-24T06:21:33;10.00;1.00
12926;DHT22;6529;50.566;9.774;2023-04-24T06:23:59;10.00;1.00
12926;DHT22;6529;50.566;9.774;2023-04-24T06:26:25;10.00;1.00
12926;DHT22;6529;50.566;9.774;2023-04-24T06:28:52;10.10;1.00
12926;DHT22;6529;50.566;9.774;2023-04-24T06:31:19;10.10;5.20
12926;DHT22;6529;50.566;9.774;2023-04-24T06:33:45;10.10;99.90
12926;DHT22;6529;50.566;9.774;2023-04-24T06:36:12;10.10;1.00
12926;DHT22;6529;50.566;9.774;2023-04-24T06:38:38;10.00;99.90
12926;DHT22;6529;50.566;9.774;2023-04-24T06:41:03;10.00;99.90
12926;DHT22;6529;50.566;9.774;2023-04-24T06:43:33;10.00;99.90
12926;DHT22;6529;50.566;9.774;2023-04-24T06:45:59;10.20;1.00
12926;DHT22;6529;50.566;9.774;2023-04-24T06:48:25;10.30;99.90
12926;DHT22;6529;50.566;9.774;2023-04-24T06:50:51;10.40;99.90
12926;DHT22;6529;50.566;9.774;2023-04-24T06:53:17;10.50;1.00
12926;DHT22;6529;50.566;9.774;2023-04-24T06:55:43;10.50;99.90
12926;DHT22;6529;50.566;9.774;2023-04-24T06:58:11;10.60;99.90
12926;DHT22;6529;50.566;9.774;2023-04-24T07:00:37;10.50;1.00
12926;DHT22;6529;50.566;9.774;2023-04-24T07:03:03;10.50;1.00
12926;DHT22;6529;50.566;9.774;2023-04-24T07:05:30;10.50;1.00
12926;DHT22;6529;50.566;9.774;2023-04-24T07:07:56;10.50;99.90
12926;DHT22;6529;50.566;9.774;2023-04-24T07:10:23;10.50;1.00
12926;DHT22;6529;50.566;9.774;2023-04-24T07:12:49;10.50;47.60
12926;DHT22;6529;50.566;9.774;2023-04-24T07:15:15;10.60;99.90
12926;DHT22;6529;50.566;9.774;2023-04-24T07:17:41;10.50;1.00
12926;DHT22;6529;50.566;9.774;2023-04-24T07:20:10;10.50;99.90
12926;DHT22;6529;50.566;9.774;2023-04-24T07:22:37;10.60;23.10
12926;DHT22;6529;50.566;9.774;2023-04-24T07:25:02;10.70;1.00
12926;DHT22;6529;50.566;9.774;2023-04-24T07:27:28;10.70;28.00
12926;DHT22;6529;50.566;9.774;2023-04-24T07:29:54;10.90;1.00
12926;DHT22;6529;50.566;9.774;2023-04-24T07:32:19;11.00;50.00
12926;DHT22;6529;50.566;9.774;2023-04-24T07:34:45;11.00;1.00
12926;DHT22;6529;50.566;9.774;2023-04-24T07:37:11;11.10;1.00
12926;DHT22;6529;50.566;9.774;2023-04-24T07:39:36;11.00;1.00
12926;DHT22;6529;50.566;9.774;2023-04-24T07:42:02;11.10;1.00
12926;DHT22;6529;50.566;9.774;2023-04-24T07:44:29;11.20;1.00
12926;DHT22;6529;50.566;9.774;2023-04-24T07:46:55;11.30;99.90
12926;DHT22;6529;50.566;9.774;2023-04-24T07:49:21;11.10;27.90
12926;DHT22;6529;50.566;9.774;2023-04-24T07:51:46;10.90;99.90
12926;DHT22;6529;50.566;9.774;2023-04-24T07:54:12;10.80;1.00
12926;DHT22;6529;50.566;9.774;2023-04-24T07:56:38;10.60;99.90
12926;DHT22;6529;50.566;9.774;2023-04-24T07:59:04;10.70;1.00
12926;DHT22;6529;50.566;9.774;2023-04-24T08:01:30;10.90;1.00
12926;DHT22;6529;50.566;9.774;2023-04-24T08:03:56;11.10;1.00
12926;DHT22;6529;50.566;9.774;2023-04-24T08:06:22;11.30;99.90
12926;DHT22;6529;50.566;9.774;2023-04-24T08:08:47;11.30;99.90
12926;DHT22;6529;50.566;9.774;2023-04-24T08:11:13;11.30;99.90
12926;DHT22;6529;50.566;9.774;2023-04-24T08:13:38;11.20;99.90
12926;DHT22;6529;50.566;9.774;2023-04-24T08:16:04;11.20;99.90
12926;DHT22;6529;50.566;9.774;2023-04-24T08:18:30;11.20;99.90
12926;DHT22;6529;50.566;9.774;2023-04-24T08:20:55;11.20;1.00
12926;DHT22;6529;50.566;9.774;2023-04-24T08:23:26;11.30;99.90
12926;DHT22;6529;50.566;9.774;2023-04-24T08:25:52;11.40;1.00
12926;DHT22;6529;50.566;9.774;2023-04-24T08:28:17;11.60;99.90
12926;DHT22;6529;50.566;9.774;2023-04-24T08:30:46;11.60;99.90
12926;DHT22;6529;50.566;9.774;2023-04-24T08:33:12;11.30;43.00
12926;DHT22;6529;50.566;9.774;2023-04-24T08:35:38;11.10;99.90
12926;DHT22;6529;50.566;9.774;2023-04-24T08:38:04;11.10;99.90
12926;DHT22;6529;50.566;9.774;2023-04-24T08:40:30;11.10;99.90
12926;DHT22;6529;50.566;9.774;2023-04-24T08:42:59;11.00;75.00
12926;DHT22;6529;50.566;9.774;2023-04-24T08:45:25;11.00;1.00
12926;DHT22;6529;50.566;9.774;2023-04-24T08:47:52;11.00;99.90
12926;DHT22;6529;50.566;9.774;2023-04-24T08:50:20;10.90;99.90
12926;DHT22;6529;50.566;9.774;2023-04-24T08:52:48;10.70;99.90
12926;DHT22;6529;50.566;9.774;2023-04-24T08:55:15;10.70;99.90
12926;DHT22;6529;50.566;9.774;2023-04-24T08:57:44;10.50;99.90
12926;DHT22;6529;50.566;9.774;2023-04-24T09:00:10;10.80;99.90
12926;DHT22;6529;50.566;9.774;2023-04-24T09:02:36;11.20;99.90
12926;DHT22;6529;50.566;9.774;2023-04-24T09:05:04;11.40;1.00
12926;DHT22;6529;50.566;9.774;2023-04-24T09:07:31;11.50;1.00
12926;DHT22;6529;50.566;9.774;2023-04-24T09:10:02;11.70;88.50
12926;DHT22;6529;50.566;9.774;2023-04-24T09:12:28;11.50;1.00
12926;DHT22;6529;50.566;9.774;2023-04-24T09:14:54;11.80;99.90
12926;DHT22;6529;50.566;9.774;2023-04-24T09:17:20;11.90;1.00
12926;DHT22;6529;50.566;9.774;2023-04-24T09:19:48;11.90;1.00
12926;DHT22;6529;50.566;9.774;2023-04-24T09:22:14;12.00;99.90
12926;DHT22;6529;50.566;9.774;2023-04-24T09:24:40;12.00;1.00
12926;DHT22;6529;50.566;9.774;2023-04-24T09:27:06;12.00;1.00
12926;DHT22;6529;50.566;9.774;2023-04-24T09:29:32;12.20;99.90
12926;DHT22;6529;50.566;9.774;2023-04-24T09:31:58;12.00;99.90
12926;DHT22;6529;50.566;9.774;2023-04-24T09:34:26;12.10;99.90
12926;DHT22;6529;50.566;9.774;2023-04-24T09:36:52;12.10;99.90
12926;DHT22;6529;50.566;9.774;2023-04-24T09:39:18;12.10;99.90
12926;DHT22;6529;50.566;9.774;2023-04-24T09:41:54;12.20;99.90
12926;DHT22;6529;50.566;9.774;2023-04-24T09:44:27;12.10;99.90
12926;DHT22;6529;50.566;9.774;2023-04-24T09:47:02;12.10;1.00
12926;DHT22;6529;50.566;9.774;2023-04-24T09:49:29;12.00;1.00
12926;DHT22;6529;50.566;9.774;2023-04-24T09:52:22;12.00;99.90
12926;DHT22;6529;50.566;9.774;2023-04-24T09:54:53;11.90;99.90
12926;DHT22;6529;50.566;9.774;2023-04-24T09:57:19;11.70;99.90
12926;DHT22;6529;50.566;9.774;2023-04-24T09:59:46;11.70;1.00
12926;DHT22;6529;50.566;9.774;2023-04-24T10:02:19;11.70;99.90
12926;DHT22;6529;50.566;9.774;2023-04-24T10:04:55;11.50;1.00
12926;DHT22;6529;50.566;9.774;2023-04-24T10:07:21;11.40;1.00
12926;DHT22;6529;50.566;9.774;2023-04-24T10:09:47;11.20;1.00
12926;DHT22;6529;50.566;9.774;2023-04-24T10:12:14;11.10;1.00
12926;DHT22;6529;50.566;9.774;2023-04-24T10:14:40;11.00;99.90
12926;DHT22;6529;50.566;9.774;2023-04-24T10:17:06;10.90;99.90
12926;DHT22;6529;50.566;9.774;2023-04-24T10:19:32;10.90;99.90
12926;DHT22;6529;50.566;9.774;2023-04-24T10:21:59;10.90;99.90
12926;DHT22;6529;50.566;9.774;2023-04-24T10:24:25;10.80;99.90
12926;DHT22;6529;50.566;9.774;2023-04-24T10:26:52;10.80;99.90
12926;DHT22;6529;50.566;9.774;2023-04-24T10:29:18;10.80;99.90
12926;DHT22;6529;50.566;9.774;2023-04-24T10:31:45;10.80;1.00
12926;DHT22;6529;50.566;9.774;2023-04-24T10:34:12;10.90;1.00
12926;DHT22;6529;50.566;9.774;2023-04-24T10:36:43;10.90;1.00
12926;DHT22;6529;50.566;9.774;2023-04-24T10:39:12;10.90;1.00
12926;DHT22;6529;50.566;9.774;2023-04-24T10:41:39;10.90;1.00
12926;DHT22;6529;50.566;9.774;2023-04-24T10:44:12;10.90;1.00
12926;DHT22;6529;50.566;9.774;2023-04-24T10:46:38;10.90;1.00
12926;DHT22;6529;50.566;9.774;2023-04-24T10:49:06;10.90;1.00
12926;DHT22;6529;50.566;9.774;2023-04-24T10:51:52;10.90;1.00
12926;DHT22;6529;50.566;9.774;2023-04-24T11:00:21;11.00;99.90
12926;DHT22;6529;50.566;9.774;2023-04-24T11:02:40;11.10;1.00
12926;DHT22;6529;50.566;9.774;2023-04-24T11:05:15;11.30;1.00
12926;DHT22;6529;50.566;9.774;2023-04-24T11:08:09;11.30;1.00
12926;DHT22;6529;50.566;9.774;2023-04-24T11:10:40;11.40;1.00
12926;DHT22;6529;50.566;9.774;2023-04-24T11:13:06;11.50;1.00
12926;DHT22;6529;50.566;9.774;2023-04-24T11:15:32;11.60;1.00
12926;DHT22;6529;50.566;9.774;2023-04-24T11:17:57;11.50;1.00
12926;DHT22;6529;50.566;9.774;2023-04-24T11:20:23;11.50;1.00
12926;DHT22;6529;50.566;9.774;2023-04-24T11:22:53;11.60;1.00
12926;DHT22;6529;50.566;9.774;2023-04-24T11:25:21;11.70;1.00
12926;DHT22;6529;50.566;9.774;2023-04-24T11:27:47;11.80;1.00
12926;DHT22;6529;50.566;9.774;2023-04-24T11:30:18;12.00;1.00
12926;DHT22;6529;50.566;9.774;2023-04-24T11:32:47;12.40;20.80
12926;DHT22;6529;50.566;9.774;2023-04-24T11:35:16;12.40;99.90
12926;DHT22;6529;50.566;9.774;2023-04-24T11:37:46;12.10;99.90
12926;DHT22;6529;50.566;9.774;2023-04-24T11:40:15;11.70;99.90
12926;DHT22;6529;50.566;9.774;2023-04-24T11:42:45;11.50;99.90
12926;DHT22;6529;50.566;9.774;2023-04-24T11:47:36;11.10;99.90
12926;DHT22;6529;50.566;9.774;2023-04-24T11:50:04;10.70;99.90
12926;DHT22;6529;50.566;9.774;2023-04-24T11:52:31;10.40;1.00
12926;DHT22;6529;50.566;9.774;2023-04-24T11:54:56;10.10;1.00
12926;DHT22;6529;50.566;9.774;2023-04-24T11:57:24;9.90;94.30
12926;DHT22;6529;50.566;9.774;2023-04-24T11:59:52;9.60;99.90
12926;DHT22;6529;50.566;9.774;2023-04-24T12:02:25;9.50;99.90
12926;DHT22;6529;50.566;9.774;2023-04-24T12:04:52;9.50;99.90
12926;DHT22;6529;50.566;9.774;2023-04-24T12:07:18;9.40;99.90
12926;DHT22;6529;50.566;9.774;2023-04-24T12:09:50;9.40;99.90
12926;DHT22;6529;50.566;9.774;2023-04-24T12:12:17;9.40;99.90
12926;DHT22;6529;50.566;9.774;2023-04-24T12:15:06;9.70;99.90
12926;DHT22;6529;50.566;9.774;2023-04-24T12:17:33;10.00;99.90
12926;DHT22;6529;50.566;9.774;2023-04-24T12:20:04;10.00;48.30
12926;DHT22;6529;50.566;9.774;2023-04-24T12:22:52;9.90;40.80
12926;DHT22;6529;50.566;9.774;2023-04-24T12:25:29;9.80;99.90
12926;DHT22;6529;50.566;9.774;2023-04-24T12:28:15;10.00;99.90
12926;DHT22;6529;50.566;9.774;2023-04-24T12:30:46;10.30;59.10
12926;DHT22;6529;50.566;9.774;2023-04-24T12:33:17;10.50;32.60
12926;DHT22;6529;50.566;9.774;2023-04-24T12:35:43;10.50;1.00
12926;DHT22;6529;50.566;9.774;2023-04-24T12:38:11;10.50;1.00
12926;DHT22;6529;50.566;9.774;2023-04-24T12:40:38;10.50;1.00
12926;DHT22;6529;50.566;9.774;2023-04-24T12:43:18;10.60;1.00
12926;DHT22;6529;50.566;9.774;2023-04-24T12:45:44;10.90;1.00
12926;DHT22;6529;50.566;9.774;2023-04-24T12:48:10;11.40;1.00
12926;DHT22;6529;50.566;9.774;2023-04-24T12:50:36;11.50;99.90
12926;DHT22;6529;50.566;9.774;2023-04-24T12:53:03;11.60;40.50
12926;DHT22;6529;50.566;9.774;2023-04-24T12:55:28;12.00;1.00
12926;DHT22;6529;50.566;9.774;2023-04-24T12:57:54;12.40;1.00
12926;DHT22;6529;50.566;9.774;2023-04-24T13:00:20;12.50;99.90
12926;DHT22;6529;50.566;9.774;2023-04-24T13:02:46;12.40;1.00
12926;DHT22;6529;50.566;9.774;2023-04-24T13:05:12;12.30;1.00
12926;DHT22;6529;50.566;9.774;2023-04-24T13:07:39;12.50;1.00
12926;DHT22;6529;50.566;9.774;2023-04-24T13:10:05;12.20;1.00
12926;DHT22;6529;50.566;9.774;2023-04-24T13:12:31;12.30;99.90
12926;DHT22;6529;50.566;9.774;2023-04-24T13:14:57;12.30;1.00
12926;DHT22;6529;50.566;9.774;2023-04-24T13:17:23;12.90;1.00
12926;DHT22;6529;50.566;9.774;2023-04-24T13:19:50;12.90;1.00
12926;DHT22;6529;50.566;9.774;2023-04-24T13:22:16;12.40;99.90
12926;DHT22;6529;50.566;9.774;2023-04-24T13:24:44;11.90;1.00
12926;DHT22;6529;50.566;9.774;2023-04-24T13:27:10;11.70;1.00
12926;DHT22;6529;50.566;9.774;2023-04-24T13:29:36;11.70;1.00
12926;DHT22;6529;50.566;9.774;2023-04-24T13:32:02;11.70;1.00
12926;DHT22;6529;50.566;9.774;2023-04-24T13:34:28;11.70;1.00
12926;DHT22;6529;50.566;9.774;2023-04-24T13:36:55;11.80;99.90
12926;DHT22;6529;50.566;9.774;2023-04-24T13:39:22;11.70;1.00
12926;DHT22;6529;50.566;9.774;2023-04-24T13:41:48;11.50;1.00
12926;DHT22;6529;50.566;9.774;2023-04-24T13:44:17;11.60;99.90
12926;DHT22;6529;50.566;9.774;2023-04-24T13:46:45;11.90;50.60
12926;DHT22;6529;50.566;9.774;2023-04-24T13:49:12;12.20;99.90
12926;DHT22;6529;50.566;9.774;2023-04-24T13:51:38;12.10;1.00
12926;DHT22;6529;50.566;9.774;2023-04-24T13:54:04;11.90;99.90
12926;DHT22;6529;50.566;9.774;2023-04-24T13:56:30;11.90;99.90
12926;DHT22;6529;50.566;9.774;2023-04-24T13:58:56;11.90;99.90
12926;DHT22;6529;50.566;9.774;2023-04-24T14:01:21;11.60;1.00
12926;DHT22;6529;50.566;9.774;2023-04-24T14:03:50;11.50;99.90
12926;DHT22;6529;50.566;9.774;2023-04-24T14:06:17;11.40;99.90
12926;DHT22;6529;50.566;9.774;2023-04-24T14:08:42;11.30;99.90
12926;DHT22;6529;50.566;9.774;2023-04-24T14:11:08;11.30;1.00
12926;DHT22;6529;50.566;9.774;2023-04-24T14:13:35;11.20;99.90
12926;DHT22;6529;50.566;9.774;2023-04-24T14:16:00;11.10;1.00
12926;DHT22;6529;50.566;9.774;2023-04-24T14:18:26;11.10;1.00
12926;DHT22;6529;50.566;9.774;2023-04-24T14:20:52;11.20;1.00
12926;DHT22;6529;50.566;9.774;2023-04-24T14:23:18;11.20;99.90
12926;DHT22;6529;50.566;9.774;2023-04-24T14:25:43;11.30;35.80
12926;DHT22;6529;50.566;9.774;2023-04-24T14:28:09;11.30;99.90
12926;DHT22;6529;50.566;9.774;2023-04-24T14:30:35;11.30;1.00
12926;DHT22;6529;50.566;9.774;2023-04-24T14:33:03;11.20;1.00
12926;DHT22;6529;50.566;9.774;2023-04-24T14:35:29;11.10;1.00
12926;DHT22;6529;50.566;9.774;2023-04-24T14:37:56;11.10;1.00
12926;DHT22;6529;50.566;9.774;2023-04-24T14:40:22;11.10;99.90
12926;DHT22;6529;50.566;9.774;2023-04-24T14:42:48;11.10;99.90
12926;DHT22;6529;50.566;9.774;2023-04-24T14:45:13;11.10;99.90
12926;DHT22;6529;50.566;9.774;2023-04-24T14:47:40;11.10;99.90
12926;DHT22;6529;50.566;9.774;2023-04-24T14:50:06;11.10;99.90
12926;DHT22;6529;50.566;9.774;2023-04-24T14:52:32;11.20;99.90
12926;DHT22;6529;50.566;9.774;2023-04-24T14:54:58;11.10;99.90
12926;DHT22;6529;50.566;9.774;2023-04-24T14:57:23;11.10;99.90
12926;DHT22;6529;50.566;9.774;2023-04-24T14:59:49;11.00;1.00
12926;DHT22;6529;50.566;9.774;2023-04-24T15:02:14;10.90;1.00
12926;DHT22;6529;50.566;9.774;2023-04-24T15:04:40;10.80;1.00
12926;DHT22;6529;50.566;9.774;2023-04-24T15:07:06;10.80;42.90
12926;DHT22;6529;50.566;9.774;2023-04-24T15:09:32;10.70;99.90
12926;DHT22;6529;50.566;9.774;2023-04-24T15:11:58;10.60;1.00
12926;DHT22;6529;50.566;9.774;2023-04-24T15:14:23;10.50;99.90
12926;DHT22;6529;50.566;9.774;2023-04-24T15:16:49;10.30;1.00
12926;DHT22;6529;50.566;9.774;2023-04-24T15:19:15;10.30;99.90
12926;DHT22;6529;50.566;9.774;2023-04-24T15:21:40;10.30;99.90
12926;DHT22;6529;50.566;9.774;2023-04-24T15:24:08;10.40;1.00
12926;DHT22;6529;50.566;9.774;2023-04-24T15:26:33;10.40;1.00
12926;DHT22;6529;50.566;9.774;2023-04-24T15:28:59;10.50;25.30
12926;DHT22;6529;50.566;9.774;2023-04-24T15:31:24;10.50;1.00
12926;DHT22;6529;50.566;9.774;2023-04-24T15:33:50;10.50;87.60
12926;DHT22;6529;50.566;9.774;2023-04-24T15:36:16;10.60;99.90
12926;DHT22;6529;50.566;9.774;2023-04-24T15:38:43;10.60;1.00
12926;DHT22;6529;50.566;9.774;2023-04-24T15:41:09;10.70;99.90
12926;DHT22;6529;50.566;9.774;2023-04-24T15:43:35;10.90;68.60
12926;DHT22;6529;50.566;9.774;2023-04-24T15:46:01;11.00;1.00
12926;DHT22;6529;50.566;9.774;2023-04-24T15:48:28;11.00;99.90
12926;DHT22;6529;50.566;9.774;2023-04-24T15:50:54;11.20;44.10
12926;DHT22;6529;50.566;9.774;2023-04-24T15:53:20;11.40;1.00
12926;DHT22;6529;50.566;9.774;2023-04-24T15:55:50;11.50;1.00
12926;DHT22;6529;50.566;9.774;2023-04-24T15:58:16;11.50;99.90